Time;durP1;ratioP1;P1;durP2;ratioP2;P2;SDS_P1;SDS_P2;PMS_P1;PMS_P2;Temp;Humidity;BMP_temperature;BMP_pressure;BME280_temperature;BME280_humidity;BME280_pressure;Samples;Min_cycle;Max_cycle;Signal;HPM_P1;HPM_P2
2021/03/10 00:01:31;;;;;;;13.13;6.75;;;;;;;;;;5146065;27;20228;-51
2021/03/10 00:04:05;;;;;;;12.40;7.53;;;;;;;;;;5139404;27;20235;-57
2021/03/10 00:06:44;;;;;;;23.65;8.50;;;;;;;;;;5155031;27;20220;-54
2021/03/10 00:09:11;;;;;;;12.10;6.35;;;;;;;;;;5141181;27;20193;-55
2021/03/10 00:11:38;;;;;;;11.85;6.85;;;;;;;;;;5158098;27;20203;-56
2021/03/10 00:14:06;;;;;;;11.90;6.85;;;;;;;;;;5159026;27;20211;-57
2021/03/10 00:16:34;;;;;;;9.68;6.35;;;;;;;;;;5155331;27;20301;-57
2021/03/10 00:19:14;;;;;;;10.60;6.43;;;;;;;;;;5158216;27;20269;-51
2021/03/10 00:21:43;;;;;;;11.38;7.50;;;;;;;;;;5147229;27;20204;-52
2021/03/10 00:24:14;;;;;;;12.65;7.35;;;;;;;;;;5120382;28;20188;-45
2021/03/10 00:26:44;;;;;;;14.43;6.55;;;;;;;;;;5140527;27;20204;-53
2021/03/10 00:29:11;;;;;;;9.63;6.40;;;;;;;;;;5158328;27;20184;-54
2021/03/10 00:31:38;;;;;;;10.80;6.57;;;;;;;;;;5158825;27;20212;-54
2021/03/10 00:34:15;;;;;;;12.20;7.32;;;;;;;;;;5158167;27;20191;-47
2021/03/10 00:36:47;;;;;;;12.90;7.80;;;;;;;;;;5127412;27;20223;-52
2021/03/10 00:39:18;;;;;;;10.20;6.32;;;;;;;;;;5118869;28;20244;-51
2021/03/10 00:42:09;;;;;;;12.88;6.35;;;;;;;;;;5129455;28;20224;-57
2021/03/10 00:44:37;;;;;;;11.70;7.07;;;;;;;;;;5132086;27;20207;-53
2021/03/10 00:47:22;;;;;;;12.90;7.32;;;;;;;;;;5152981;27;20192;-50
2021/03/10 00:50:08;;;;;;;14.93;7.70;;;;;;;;;;5149768;27;20203;-53
2021/03/10 00:52:35;;;;;;;14.20;7.50;;;;;;;;;;5145406;27;20216;-52
2021/03/10 00:55:03;;;;;;;14.02;8.05;;;;;;;;;;5137290;28;20203;-50
2021/03/10 00:57:30;;;;;;;13.63;8.93;;;;;;;;;;5137261;28;20219;-51
2021/03/10 00:59:57;;;;;;;9.82;6.65;;;;;;;;;;5137021;28;20212;-49
2021/03/10 01:02:27;;;;;;;11.80;6.57;;;;;;;;;;5155691;27;20184;-54
2021/03/10 01:05:13;;;;;;;19.40;7.70;;;;;;;;;;5158013;27;20196;-53
2021/03/10 01:07:39;;;;;;;13.55;7.90;;;;;;;;;;5157622;27;20211;-55
2021/03/10 01:10:09;;;;;;;12.13;7.20;;;;;;;;;;5159117;27;20213;-52
2021/03/10 01:15:39;;;;;;;11.93;7.90;;;;;;;;;;5141284;27;20226;-53
2021/03/10 01:18:06;;;;;;;12.98;7.55;;;;;;;;;;5119934;28;20224;-53
2021/03/10 01:20:34;;;;;;;13.27;7.72;;;;;;;;;;5119005;28;20184;-56
2021/03/10 01:23:00;;;;;;;10.25;6.80;;;;;;;;;;5135625;28;20192;-49
2021/03/10 01:25:28;;;;;;;9.25;6.75;;;;;;;;;;5116484;28;20253;-51
2021/03/10 01:30:59;;;;;;;12.38;7.60;;;;;;;;;;5116428;28;20215;-46
2021/03/10 01:33:26;;;;;;;12.45;7.03;;;;;;;;;;5116572;28;20205;-47
2021/03/10 01:35:55;;;;;;;12.60;6.90;;;;;;;;;;5115927;28;20197;-48
2021/03/10 01:38:22;;;;;;;11.85;6.15;;;;;;;;;;5116500;28;20213;-45
2021/03/10 01:40:49;;;;;;;11.13;7.53;;;;;;;;;;5130568;28;20236;-52
2021/03/10 01:46:20;;;;;;;9.52;6.30;;;;;;;;;;5116324;28;20188;-57
2021/03/10 01:48:47;;;;;;;10.55;7.07;;;;;;;;;;5116101;28;20573;-57
2021/03/10 01:51:21;;;;;;;9.98;7.20;;;;;;;;;;5115220;28;20223;-57
2021/03/10 01:53:48;;;;;;;11.52;7.30;;;;;;;;;;5115929;28;20205;-58
2021/03/10 01:56:16;;;;;;;13.85;6.28;;;;;;;;;;5115705;28;20224;-53
2021/03/10 01:58:45;;;;;;;10.55;7.80;;;;;;;;;;5115874;28;20211;-54
2021/03/10 02:01:11;;;;;;;9.98;6.30;;;;;;;;;;5115987;27;20197;-57
2021/03/10 02:03:38;;;;;;;10.73;6.60;;;;;;;;;;5115124;28;20205;-46
2021/03/10 02:06:27;;;;;;;11.70;6.68;;;;;;;;;;5115397;28;20200;-45
2021/03/10 02:08:55;;;;;;;9.32;6.55;;;;;;;;;;5147561;27;20223;-56
2021/03/10 02:11:31;;;;;;;9.27;6.55;;;;;;;;;;5157144;27;20203;-50
2021/03/10 02:14:08;;;;;;;10.63;7.93;;;;;;;;;;5156750;27;20225;-54
2021/03/10 02:16:40;;;;;;;9.52;7.20;;;;;;;;;;5169384;27;20230;-52
2021/03/10 02:19:16;;;;;;;13.25;8.77;;;;;;;;;;5177410;27;20215;-53
2021/03/10 02:21:49;;;;;;;10.57;7.05;;;;;;;;;;5178026;27;20207;-54
2021/03/10 02:24:28;;;;;;;11.77;6.40;;;;;;;;;;5152794;27;20216;-52
2021/03/10 02:27:04;;;;;;;9.80;6.40;;;;;;;;;;5136112;28;20192;-56
2021/03/10 02:29:32;;;;;;;8.68;6.57;;;;;;;;;;5136425;28;20225;-56
2021/03/10 02:32:00;;;;;;;14.05;6.88;;;;;;;;;;5136311;28;20196;-54
2021/03/10 02:34:34;;;;;;;8.18;6.60;;;;;;;;;;5138952;28;20226;-52
2021/03/10 02:37:01;;;;;;;10.18;6.05;;;;;;;;;;5140315;27;20184;-54
2021/03/10 02:39:29;;;;;;;8.55;7.13;;;;;;;;;;5140126;27;20212;-55
2021/03/10 02:42:10;;;;;;;9.18;6.15;;;;;;;;;;5140701;28;20208;-50
2021/03/10 02:44:39;;;;;;;8.45;6.35;;;;;;;;;;5152773;27;20215;-46
2021/03/10 02:47:06;;;;;;;10.43;7.90;;;;;;;;;;5161874;27;20213;-51
2021/03/10 02:49:36;;;;;;;13.43;7.47;;;;;;;;;;5160633;27;20196;-54
2021/03/10 02:52:03;;;;;;;10.65;6.72;;;;;;;;;;5161006;27;20207;-56
2021/03/10 02:54:30;;;;;;;8.20;6.13;;;;;;;;;;5160947;27;20246;-51
2021/03/10 02:56:58;;;;;;;10.70;6.80;;;;;;;;;;5160763;27;20179;-49
2021/03/10 02:59:27;;;;;;;8.20;6.38;;;;;;;;;;5161229;27;20224;-55
2021/03/10 03:01:55;;;;;;;8.20;6.35;;;;;;;;;;5161387;27;20200;-57
2021/03/10 03:04:22;;;;;;;8.57;6.45;;;;;;;;;;5160497;27;20191;-51
2021/03/10 03:06:48;;;;;;;10.85;6.35;;;;;;;;;;5160668;27;20277;-49
2021/03/10 03:09:23;;;;;;;11.70;7.18;;;;;;;;;;5160990;27;20198;-52
2021/03/10 03:11:50;;;;;;;9.82;6.25;;;;;;;;;;5161287;27;20199;-56
2021/03/10 03:14:18;;;;;;;8.45;6.18;;;;;;;;;;5143263;27;20223;-48
2021/03/10 03:19:49;;;;;;;10.70;6.10;;;;;;;;;;5159154;27;20242;-55
2021/03/10 03:22:17;;;;;;;7.88;5.82;;;;;;;;;;5160536;27;20204;-56
2021/03/10 03:25:20;;;;;;;10.90;7.05;;;;;;;;;;5161230;27;20200;-50
2021/03/10 03:27:50;;;;;;;10.38;7.63;;;;;;;;;;5174441;27;20235;-58
2021/03/10 03:30:17;;;;;;;14.02;7.60;;;;;;;;;;5181223;27;20195;-51
2021/03/10 03:33:10;;;;;;;11.50;7.63;;;;;;;;;;5181607;27;20210;-56
2021/03/10 03:35:37;;;;;;;10.60;7.85;;;;;;;;;;5165179;27;20231;-56
2021/03/10 03:38:05;;;;;;;12.07;7.47;;;;;;;;;;5160160;27;20188;-53
2021/03/10 03:40:32;;;;;;;11.82;8.52;;;;;;;;;;5159885;27;20221;-53
2021/03/10 03:42:59;;;;;;;11.90;7.97;;;;;;;;;;5160288;27;20343;-57
2021/03/10 03:45:26;;;;;;;12.65;8.32;;;;;;;;;;5160114;27;20183;-49
2021/03/10 03:47:55;;;;;;;12.73;8.27;;;;;;;;;;5149558;27;20315;-56
2021/03/10 03:50:24;;;;;;;11.57;7.70;;;;;;;;;;5139712;28;20188;-52
2021/03/10 03:52:56;;;;;;;12.30;7.75;;;;;;;;;;5139665;28;20189;-53
2021/03/10 03:55:23;;;;;;;9.40;8.00;;;;;;;;;;5139356;28;20188;-56
2021/03/10 03:57:50;;;;;;;9.98;7.28;;;;;;;;;;5139498;28;20193;-55
2021/03/10 04:00:29;;;;;;;13.07;8.18;;;;;;;;;;5138824;28;20235;-56
2021/03/10 04:02:56;;;;;;;11.90;7.68;;;;;;;;;;5139103;28;20201;-56
2021/03/10 04:05:23;;;;;;;11.52;8.52;;;;;;;;;;5138933;28;20192;-58
2021/03/10 04:07:53;;;;;;;12.10;7.63;;;;;;;;;;5139531;28;20211;-51
2021/03/10 04:10:21;;;;;;;12.77;9.10;;;;;;;;;;5138773;28;20260;-49
2021/03/10 04:12:48;;;;;;;13.88;8.63;;;;;;;;;;5139394;28;20180;-50
2021/03/10 04:15:39;;;;;;;9.80;7.80;;;;;;;;;;5138757;28;20193;-54
2021/03/10 04:18:06;;;;;;;12.15;9.07;;;;;;;;;;5138576;28;20204;-56
2021/03/10 04:20:33;;;;;;;12.60;8.55;;;;;;;;;;5138767;28;20196;-53
2021/03/10 04:23:02;;;;;;;13.10;8.73;;;;;;;;;;5138622;28;20196;-49
2021/03/10 04:25:29;;;;;;;13.77;8.45;;;;;;;;;;5150559;27;20223;-56
2021/03/10 04:27:56;;;;;;;12.02;9.90;;;;;;;;;;5140724;27;20180;-49
2021/03/10 04:30:24;;;;;;;13.90;10.65;;;;;;;;;;5139034;28;20200;-55
2021/03/10 04:32:50;;;;;;;16.65;9.93;;;;;;;;;;5139226;27;20214;-54
2021/03/10 04:35:19;;;;;;;19.30;9.85;;;;;;;;;;5151684;27;20192;-48
2021/03/10 04:37:49;;;;;;;12.13;9.25;;;;;;;;;;5148760;27;20274;-58
2021/03/10 04:40:20;;;;;;;14.05;9.48;;;;;;;;;;5137483;28;20259;-52
2021/03/10 04:42:47;;;;;;;14.68;10.68;;;;;;;;;;5138638;28;20196;-52
2021/03/10 04:45:40;;;;;;;12.70;9.70;;;;;;;;;;5138213;28;20210;-58
2021/03/10 04:48:07;;;;;;;17.75;11.45;;;;;;;;;;5137726;28;20188;-56
2021/03/10 04:50:34;;;;;;;14.85;10.70;;;;;;;;;;5154197;27;20203;-57
2021/03/10 04:53:12;;;;;;;21.52;11.32;;;;;;;;;;5155009;27;20200;-56
2021/03/10 04:55:39;;;;;;;18.60;10.02;;;;;;;;;;5158659;27;20191;-55
2021/03/10 04:58:07;;;;;;;17.05;9.80;;;;;;;;;;5141142;27;20220;-57
2021/03/10 05:00:33;;;;;;;14.20;9.50;;;;;;;;;;5156443;27;20188;-51
2021/03/10 05:03:00;;;;;;;13.27;10.00;;;;;;;;;;5144736;27;20208;-54
2021/03/10 05:05:30;;;;;;;11.13;8.05;;;;;;;;;;5137670;28;20172;-58
2021/03/10 05:07:57;;;;;;;12.65;9.27;;;;;;;;;;5137928;28;20195;-53
2021/03/10 05:10:24;;;;;;;13.30;10.00;;;;;;;;;;5145833;27;20215;-49
2021/03/10 05:12:57;;;;;;;14.63;10.82;;;;;;;;;;5157199;27;20190;-52
2021/03/10 05:15:23;;;;;;;17.17;10.40;;;;;;;;;;5156581;27;20216;-57
2021/03/10 05:17:50;;;;;;;11.82;10.10;;;;;;;;;;5157731;27;20284;-56
2021/03/10 05:20:17;;;;;;;12.73;10.32;;;;;;;;;;5137012;28;20212;-57
2021/03/10 05:22:44;;;;;;;14.75;10.60;;;;;;;;;;5136964;28;20192;-57
2021/03/10 05:25:36;;;;;;;15.00;11.05;;;;;;;;;;5136956;28;20200;-53
2021/03/10 05:28:04;;;;;;;13.43;11.30;;;;;;;;;;5136872;27;20203;-58
2021/03/10 05:30:31;;;;;;;16.75;10.57;;;;;;;;;;5137695;27;20268;-53
2021/03/10 05:33:01;;;;;;;22.92;12.43;;;;;;;;;;5137124;28;20200;-58
2021/03/10 05:35:27;;;;;;;17.27;11.90;;;;;;;;;;5148628;27;20228;-55
2021/03/10 05:37:54;;;;;;;17.00;11.95;;;;;;;;;;5157729;27;20187;-54
2021/03/10 05:40:26;;;;;;;14.90;11.55;;;;;;;;;;5157796;27;20293;-56
2021/03/10 05:42:57;;;;;;;16.02;12.57;;;;;;;;;;5139378;27;20197;-59
2021/03/10 05:45:25;;;;;;;16.00;11.88;;;;;;;;;;5136359;28;20204;-61
2021/03/10 05:48:27;;;;;;;16.55;12.45;;;;;;;;;;5136912;28;20215;-55
2021/03/10 05:50:54;;;;;;;20.52;12.40;;;;;;;;;;5152046;27;20215;-52
2021/03/10 05:53:23;;;;;;;20.63;14.30;;;;;;;;;;5157252;27;20223;-56
2021/03/10 05:55:54;;;;;;;18.45;12.27;;;;;;;;;;5157319;27;20180;-47
2021/03/10 05:58:21;;;;;;;16.80;12.60;;;;;;;;;;5139956;27;20208;-58
2021/03/10 06:00:49;;;;;;;18.77;13.20;;;;;;;;;;5142085;27;20202;-58
2021/03/10 06:03:17;;;;;;;17.90;14.10;;;;;;;;;;5157300;27;20192;-58
2021/03/10 06:05:44;;;;;;;18.83;13.85;;;;;;;;;;5142698;27;20204;-48
2021/03/10 06:08:14;;;;;;;17.05;12.90;;;;;;;;;;5148114;27;20200;-58
2021/03/10 06:10:42;;;;;;;19.38;13.02;;;;;;;;;;5151720;27;20229;-52
2021/03/10 06:13:19;;;;;;;17.42;13.52;;;;;;;;;;5152983;27;20382;-55
2021/03/10 06:15:47;;;;;;;16.73;12.23;;;;;;;;;;5149584;27;20206;-52
2021/03/10 06:18:27;;;;;;;20.38;14.45;;;;;;;;;;5156245;27;20192;-53
2021/03/10 06:21:20;;;;;;;16.10;12.27;;;;;;;;;;5137327;27;20193;-52
2021/03/10 06:23:51;;;;;;;17.98;13.35;;;;;;;;;;5137899;28;20317;-55
2021/03/10 06:26:18;;;;;;;16.75;12.98;;;;;;;;;;5135667;28;20208;-48
2021/03/10 06:28:45;;;;;;;17.42;13.45;;;;;;;;;;5137908;28;20193;-51
2021/03/10 06:31:19;;;;;;;21.25;13.93;;;;;;;;;;5155838;28;20180;-57
2021/03/10 06:34:07;;;;;;;17.90;13.65;;;;;;;;;;5156181;28;20188;-55
2021/03/10 06:36:35;;;;;;;18.25;14.23;;;;;;;;;;5149700;28;20247;-52
2021/03/10 06:39:10;;;;;;;17.30;13.25;;;;;;;;;;5156138;28;20208;-57
2021/03/10 06:41:53;;;;;;;21.58;14.93;;;;;;;;;;5156521;28;20187;-55
2021/03/10 06:44:23;;;;;;;23.77;15.40;;;;;;;;;;5155617;28;20256;-58
2021/03/10 06:47:00;;;;;;;24.02;15.70;;;;;;;;;;5155848;28;20227;-58
2021/03/10 06:49:34;;;;;;;24.73;15.55;;;;;;;;;;5155611;28;20231;-57
2021/03/10 06:52:10;;;;;;;18.98;15.50;;;;;;;;;;5156666;28;20218;-50
2021/03/10 06:54:42;;;;;;;22.42;14.77;;;;;;;;;;5156061;28;20204;-57
2021/03/10 06:57:12;;;;;;;21.38;13.52;;;;;;;;;;5155632;27;20204;-58
2021/03/10 07:00:02;;;;;;;20.80;15.05;;;;;;;;;;5138224;28;20475;-53
2021/03/10 07:02:30;;;;;;;23.70;16.20;;;;;;;;;;5144355;28;20252;-54
2021/03/10 07:04:58;;;;;;;22.13;15.30;;;;;;;;;;5135030;28;20200;-53
2021/03/10 07:07:27;;;;;;;23.35;15.15;;;;;;;;;;5135694;28;20193;-54
2021/03/10 07:09:55;;;;;;;24.95;14.82;;;;;;;;;;5156145;28;20276;-51
2021/03/10 07:12:29;;;;;;;21.75;15.35;;;;;;;;;;5155965;27;20243;-55
2021/03/10 07:14:56;;;;;;;22.10;15.15;;;;;;;;;;5155538;27;20191;-60
2021/03/10 07:17:23;;;;;;;21.30;16.13;;;;;;;;;;5155602;27;20184;-56
2021/03/10 07:20:16;;;;;;;22.45;14.68;;;;;;;;;;5155604;27;20231;-55
2021/03/10 07:22:59;;;;;;;21.80;15.15;;;;;;;;;;5157864;27;20231;-53
2021/03/10 07:25:28;;;;;;;17.30;13.00;;;;;;;;;;5150330;27;20231;-53
2021/03/10 07:27:58;;;;;;;21.85;15.00;;;;;;;;;;5159589;27;20256;-60
2021/03/10 07:30:38;;;;;;;20.77;16.25;;;;;;;;;;5152018;27;20197;-58
2021/03/10 07:33:06;;;;;;;20.60;15.35;;;;;;;;;;5146399;27;20223;-58
2021/03/10 07:35:33;;;;;;;24.83;16.70;;;;;;;;;;5147870;27;20208;-60
2021/03/10 07:38:16;;;;;;;27.20;16.45;;;;;;;;;;5138413;28;20184;-56
2021/03/10 07:40:59;;;;;;;18.55;14.88;;;;;;;;;;5137116;28;20209;-53
2021/03/10 07:43:46;;;;;;;30.67;18.38;;;;;;;;;;5135433;28;20188;-56
2021/03/10 07:46:23;;;;;;;24.35;16.52;;;;;;;;;;5137734;28;20189;-47
2021/03/10 07:48:50;;;;;;;25.70;17.08;;;;;;;;;;5138517;28;20218;-52
2021/03/10 07:51:29;;;;;;;23.55;16.05;;;;;;;;;;5137931;28;20201;-60
2021/03/10 07:53:57;;;;;;;25.42;16.77;;;;;;;;;;5148255;27;20200;-58
2021/03/10 07:56:24;;;;;;;23.45;15.15;;;;;;;;;;5158629;27;20379;-55
2021/03/10 07:58:51;;;;;;;22.20;14.57;;;;;;;;;;5158984;27;20219;-56
2021/03/10 08:01:18;;;;;;;21.23;15.48;;;;;;;;;;5158153;27;20217;-53
2021/03/10 08:03:45;;;;;;;31.08;16.88;;;;;;;;;;5158898;27;20208;-59
2021/03/10 08:06:45;;;;;;;27.38;17.17;;;;;;;;;;5132041;27;20370;-56
2021/03/10 08:09:13;;;;;;;24.05;16.48;;;;;;;;;;5176965;27;20249;-52
2021/03/10 08:11:45;;;;;;;24.70;17.27;;;;;;;;;;5179741;27;20199;-56
2021/03/10 08:14:12;;;;;;;23.60;16.35;;;;;;;;;;5179610;27;20198;-45
2021/03/10 08:16:47;;;;;;;27.17;18.08;;;;;;;;;;5178347;27;20195;-46
2021/03/10 08:19:14;;;;;;;25.98;16.20;;;;;;;;;;5180145;27;20245;-54
2021/03/10 08:22:02;;;;;;;23.90;17.25;;;;;;;;;;5179474;27;20223;-57
2021/03/10 08:24:30;;;;;;;26.48;18.20;;;;;;;;;;5178093;27;20187;-58
2021/03/10 08:26:58;;;;;;;29.23;16.92;;;;;;;;;;5179329;27;20206;-57
2021/03/10 08:29:46;;;;;;;25.27;16.63;;;;;;;;;;5178760;27;20199;-54
2021/03/10 08:32:23;;;;;;;25.10;16.88;;;;;;;;;;5178488;27;20230;-48
2021/03/10 08:34:51;;;;;;;29.25;19.67;;;;;;;;;;5179215;27;20238;-56
2021/03/10 08:37:19;;;;;;;28.55;16.88;;;;;;;;;;5179110;27;20200;-55
2021/03/10 08:39:48;;;;;;;25.48;17.92;;;;;;;;;;5175594;27;20219;-48
2021/03/10 08:42:17;;;;;;;28.02;18.40;;;;;;;;;;5158159;27;20188;-57
2021/03/10 08:45:15;;;;;;;29.77;20.35;;;;;;;;;;5157308;27;20200;-52
2021/03/10 08:47:44;;;;;;;27.55;19.55;;;;;;;;;;5157547;27;20249;-50
2021/03/10 08:50:13;;;;;;;29.10;18.98;;;;;;;;;;5163970;27;20251;-55
2021/03/10 08:52:46;;;;;;;28.55;19.08;;;;;;;;;;5178154;27;20197;-60
2021/03/10 08:55:14;;;;;;;32.15;21.90;;;;;;;;;;5178790;27;20933;-55
2021/03/10 08:57:50;;;;;;;25.98;18.40;;;;;;;;;;5177721;27;20191;-56
2021/03/10 09:00:21;;;;;;;26.75;17.92;;;;;;;;;;5177715;27;20271;-54
2021/03/10 09:02:49;;;;;;;37.90;19.85;;;;;;;;;;5177753;27;20191;-57
2021/03/10 09:05:43;;;;;;;27.52;16.85;;;;;;;;;;5177703;27;20239;-52
2021/03/10 09:08:11;;;;;;;27.52;17.58;;;;;;;;;;5177524;27;20266;-58
2021/03/10 09:10:40;;;;;;;29.08;18.83;;;;;;;;;;5164641;27;20196;-57
2021/03/10 09:13:07;;;;;;;26.95;18.63;;;;;;;;;;5177601;27;20247;-51
2021/03/10 09:15:39;;;;;;;31.42;19.10;;;;;;;;;;5177558;27;20209;-50
2021/03/10 09:18:07;;;;;;;27.50;18.40;;;;;;;;;;5177758;27;20183;-56
2021/03/10 09:20:41;;;;;;;24.77;18.45;;;;;;;;;;5177843;27;20215;-56
2021/03/10 09:23:09;;;;;;;28.30;18.60;;;;;;;;;;5177766;27;20187;-58
2021/03/10 09:25:37;;;;;;;33.72;19.90;;;;;;;;;;5178113;27;20187;-57
2021/03/10 09:28:16;;;;;;;29.63;18.73;;;;;;;;;;5178215;27;20179;-54
2021/03/10 09:30:44;;;;;;;29.45;18.67;;;;;;;;;;5168011;27;20231;-53
2021/03/10 09:33:24;;;;;;;28.35;18.60;;;;;;;;;;5151953;27;20196;-49
2021/03/10 09:38:56;;;;;;;28.42;19.88;;;;;;;;;;5142825;27;20258;-59
2021/03/10 09:41:25;;;;;;;28.73;19.45;;;;;;;;;;5156674;27;20184;-54
2021/03/10 09:44:10;;;;;;;28.45;19.38;;;;;;;;;;5134595;28;20387;-53
2021/03/10 09:46:42;;;;;;;30.23;21.30;;;;;;;;;;5135808;28;20204;-53
2021/03/10 09:49:21;;;;;;;31.63;20.40;;;;;;;;;;5134548;28;20453;-55
2021/03/10 09:51:50;;;;;;;32.20;20.63;;;;;;;;;;5135207;28;20469;-56
2021/03/10 09:54:18;;;;;;;37.20;22.38;;;;;;;;;;5133633;28;20522;-56
2021/03/10 09:56:50;;;;;;;30.07;21.20;;;;;;;;;;5134505;27;20192;-58
2021/03/10 09:59:17;;;;;;;28.50;19.23;;;;;;;;;;5134011;28;20575;-53
2021/03/10 10:02:00;;;;;;;29.37;20.13;;;;;;;;;;5151144;27;20612;-56
2021/03/10 10:05:02;;;;;;;30.37;19.87;;;;;;;;;;5154976;27;20442;-61
2021/03/10 10:07:30;;;;;;;29.47;19.80;;;;;;;;;;5137704;27;20478;-57
2021/03/10 10:10:00;;;;;;;35.10;21.23;;;;;;;;;;5154231;27;20438;-57
2021/03/10 10:12:43;;;;;;;35.50;20.03;;;;;;;;;;5153417;27;20414;-57
2021/03/10 10:15:10;;;;;;;31.13;20.97;;;;;;;;;;5154126;27;20445;-52
2021/03/10 10:17:47;;;;;;;32.00;21.27;;;;;;;;;;5154464;27;20469;-57
2021/03/10 10:20:15;;;;;;;36.67;24.63;;;;;;;;;;5153852;27;20476;-52
2021/03/10 10:22:42;;;;;;;44.00;31.43;;;;;;;;;;5123612;28;20461;-57
2021/03/10 10:25:12;;;;;;;41.83;29.10;;;;;;;;;;5140140;27;20486;-55
2021/03/10 10:27:38;;;;;;;34.97;23.67;;;;;;;;;;5153610;28;20461;-58
2021/03/10 10:30:14;;;;;;;28.63;20.63;;;;;;;;;;5154230;28;20445;-53
2021/03/10 10:32:43;;;;;;;34.67;23.13;;;;;;;;;;5154332;28;21000;-51
2021/03/10 10:35:12;;;;;;;35.07;22.77;;;;;;;;;;5153458;28;20514;-56
2021/03/10 10:37:40;;;;;;;33.73;20.87;;;;;;;;;;5153667;28;20456;-57
2021/03/10 10:40:08;;;;;;;31.57;21.97;;;;;;;;;;5153921;28;20524;-56
2021/03/10 10:42:50;;;;;;;30.83;22.40;;;;;;;;;;5154342;28;20425;-55
2021/03/10 10:45:17;;;;;;;34.07;22.00;;;;;;;;;;5151851;28;20470;-55
2021/03/10 10:47:55;;;;;;;31.33;21.93;;;;;;;;;;5133482;28;20450;-58
2021/03/10 10:50:43;;;;;;;32.27;20.33;;;;;;;;;;5139814;28;20464;-50
2021/03/10 10:53:11;;;;;;;33.00;21.40;;;;;;;;;;5153729;28;20517;-57
2021/03/10 10:55:38;;;;;;;31.30;21.30;;;;;;;;;;5156071;27;20646;-61
2021/03/10 10:58:22;;;;;;;33.37;23.60;;;;;;;;;;5157735;27;20450;-54
2021/03/10 11:00:49;;;;;;;31.87;22.10;;;;;;;;;;5153698;27;20499;-53
2021/03/10 11:03:17;;;;;;;31.90;24.20;;;;;;;;;;5145142;27;20454;-52
2021/03/10 11:05:46;;;;;;;31.70;22.03;;;;;;;;;;5150888;27;20450;-60
2021/03/10 11:08:13;;;;;;;29.83;22.50;;;;;;;;;;5157446;27;20473;-62
2021/03/10 11:10:43;;;;;;;35.10;23.73;;;;;;;;;;5157898;27;20521;-56
2021/03/10 11:13:11;;;;;;;32.50;22.83;;;;;;;;;;5158390;27;20441;-52
2021/03/10 11:15:38;;;;;;;32.13;23.43;;;;;;;;;;5156740;27;20520;-53
2021/03/10 11:18:05;;;;;;;28.97;21.47;;;;;;;;;;5157074;27;20521;-55
2021/03/10 11:20:40;;;;;;;31.37;21.40;;;;;;;;;;5157720;27;20479;-54
2021/03/10 11:23:07;;;;;;;30.70;20.40;;;;;;;;;;5157388;27;20453;-59
2021/03/10 11:25:41;;;;;;;30.10;22.40;;;;;;;;;;5156747;27;20463;-55
2021/03/10 11:28:21;;;;;;;29.70;22.10;;;;;;;;;;5144594;27;20486;-54
2021/03/10 11:30:48;;;;;;;32.00;22.30;;;;;;;;;;5143163;27;20449;-53
2021/03/10 11:33:16;;;;;;;36.00;24.87;;;;;;;;;;5148036;27;20588;-54
2021/03/10 11:36:18;;;;;;;28.73;21.60;;;;;;;;;;5151408;27;20478;-59
2021/03/10 11:38:48;;;;;;;32.17;22.23;;;;;;;;;;5155791;27;20513;-53
2021/03/10 11:41:16;;;;;;;30.47;20.90;;;;;;;;;;5148950;27;20433;-58
2021/03/10 11:43:58;;;;;;;31.70;21.67;;;;;;;;;;5155326;27;20450;-54
2021/03/10 11:46:25;;;;;;;29.10;22.17;;;;;;;;;;5168665;27;20499;-56
2021/03/10 11:48:54;;;;;;;27.33;20.50;;;;;;;;;;5179535;27;20433;-53
2021/03/10 11:51:28;;;;;;;30.13;21.23;;;;;;;;;;5179650;27;20476;-57
2021/03/10 11:53:56;;;;;;;32.67;20.40;;;;;;;;;;5179107;27;20445;-56
2021/03/10 11:56:23;;;;;;;34.07;23.67;;;;;;;;;;5179247;27;20429;-59
2021/03/10 11:58:58;;;;;;;30.40;22.30;;;;;;;;;;5179284;27;20504;-54
2021/03/10 12:01:25;;;;;;;31.67;22.63;;;;;;;;;;5179512;27;20454;-55
2021/03/10 12:03:53;;;;;;;57.23;39.80;;;;;;;;;;5179583;27;20452;-57
2021/03/10 12:06:21;;;;;;;29.17;21.87;;;;;;;;;;5178150;27;20457;-51
2021/03/10 12:08:47;;;;;;;27.43;20.03;;;;;;;;;;5178144;27;20464;-56
2021/03/10 12:11:35;;;;;;;30.43;19.87;;;;;;;;;;5174250;27;20448;-56
2021/03/10 12:14:24;;;;;;;26.00;17.97;;;;;;;;;;5166512;27;20449;-57
2021/03/10 12:16:58;;;;;;;34.03;18.00;;;;;;;;;;5168976;27;20509;-57
2021/03/10 12:19:25;;;;;;;23.80;18.20;;;;;;;;;;5162649;27;20484;-56
2021/03/10 12:21:52;;;;;;;28.77;18.13;;;;;;;;;;5177041;27;20501;-55
2021/03/10 12:24:22;;;;;;;26.03;18.03;;;;;;;;;;5176022;27;20468;-56
2021/03/10 12:26:50;;;;;;;22.47;15.83;;;;;;;;;;5175141;27;20452;-56
2021/03/10 12:29:17;;;;;;;26.80;16.43;;;;;;;;;;5176194;27;20466;-54
2021/03/10 12:31:45;;;;;;;22.13;16.83;;;;;;;;;;5174632;27;20448;-53
2021/03/10 12:34:13;;;;;;;21.03;14.40;;;;;;;;;;5175493;27;20517;-56
2021/03/10 12:36:41;;;;;;;19.87;13.13;;;;;;;;;;5165273;27;20525;-60
2021/03/10 12:39:27;;;;;;;18.17;13.10;;;;;;;;;;5161268;27;20524;-57
2021/03/10 12:42:12;;;;;;;20.80;13.00;;;;;;;;;;5174400;27;20486;-56
2021/03/10 12:44:49;;;;;;;20.63;15.90;;;;;;;;;;5175339;27;20452;-53
2021/03/10 12:47:16;;;;;;;20.10;12.40;;;;;;;;;;5174009;27;20529;-59
2021/03/10 12:49:43;;;;;;;12.00;8.37;;;;;;;;;;5174308;27;20519;-60
2021/03/10 12:52:10;;;;;;;11.37;7.37;;;;;;;;;;5174230;27;20865;-57
2021/03/10 12:54:37;;;;;;;10.43;7.40;;;;;;;;;;5174102;27;20460;-56
2021/03/10 12:57:07;;;;;;;9.40;6.47;;;;;;;;;;5177967;27;20424;-59
2021/03/10 12:59:33;;;;;;;11.87;7.60;;;;;;;;;;5177870;27;20473;-60
2021/03/10 13:02:00;;;;;;;10.27;7.00;;;;;;;;;;5176828;27;20464;-60
2021/03/10 13:04:28;;;;;;;13.23;9.10;;;;;;;;;;5176666;27;20489;-56
2021/03/10 13:06:55;;;;;;;9.90;7.73;;;;;;;;;;5177135;27;20451;-55
2021/03/10 13:09:28;;;;;;;10.30;7.90;;;;;;;;;;5177802;27;20460;-61
2021/03/10 13:11:56;;;;;;;15.27;10.57;;;;;;;;;;5176647;27;20452;-60
2021/03/10 13:14:26;;;;;;;10.87;7.90;;;;;;;;;;5176266;27;20436;-54
2021/03/10 13:17:14;;;;;;;12.50;8.40;;;;;;;;;;5177392;27;20464;-53
2021/03/10 13:19:51;;;;;;;10.43;7.67;;;;;;;;;;5164109;27;20523;-56
2021/03/10 13:22:19;;;;;;;15.73;8.30;;;;;;;;;;5176814;27;20448;-50
2021/03/10 13:24:55;;;;;;;11.13;8.17;;;;;;;;;;5177171;27;20456;-57
2021/03/10 13:27:22;;;;;;;15.70;10.03;;;;;;;;;;5176595;27;20460;-57
2021/03/10 13:29:51;;;;;;;13.93;8.93;;;;;;;;;;5175768;27;20440;-57
2021/03/10 13:32:18;;;;;;;10.50;7.93;;;;;;;;;;5177218;27;20448;-56
2021/03/10 13:34:45;;;;;;;14.60;8.30;;;;;;;;;;5177768;27;20584;-57
2021/03/10 13:37:12;;;;;;;11.47;7.90;;;;;;;;;;5176702;27;20460;-59
2021/03/10 13:39:38;;;;;;;14.93;9.87;;;;;;;;;;5176945;27;20492;-56
2021/03/10 13:42:06;;;;;;;14.80;9.47;;;;;;;;;;5176279;27;20440;-57
2021/03/10 13:44:39;;;;;;;13.23;8.73;;;;;;;;;;5177104;27;20440;-59
2021/03/10 13:47:09;;;;;;;14.77;10.17;;;;;;;;;;5176184;27;20464;-58
2021/03/10 13:49:37;;;;;;;14.20;9.43;;;;;;;;;;5176013;27;20460;-55
2021/03/10 13:52:29;;;;;;;16.20;10.57;;;;;;;;;;5176264;27;20452;-55
2021/03/10 13:54:56;;;;;;;14.60;9.93;;;;;;;;;;5156514;27;20479;-60
2021/03/10 13:57:23;;;;;;;25.60;14.30;;;;;;;;;;5162613;27;20650;-53
2021/03/10 13:59:50;;;;;;;11.97;8.70;;;;;;;;;;5134606;28;20474;-56
2021/03/10 14:02:19;;;;;;;13.90;10.23;;;;;;;;;;5138309;27;20587;-55
2021/03/10 14:04:47;;;;;;;12.87;9.27;;;;;;;;;;5146403;27;20434;-56
2021/03/10 14:07:23;;;;;;;16.87;9.73;;;;;;;;;;5154805;27;20471;-56
2021/03/10 14:09:51;;;;;;;12.70;8.77;;;;;;;;;;5142422;27;20437;-56
2021/03/10 14:12:18;;;;;;;11.90;8.60;;;;;;;;;;5148324;27;20479;-59
2021/03/10 14:14:51;;;;;;;12.03;8.80;;;;;;;;;;5152726;27;20457;-56
2021/03/10 14:17:19;;;;;;;12.40;8.80;;;;;;;;;;5155419;27;20534;-58
2021/03/10 14:19:46;;;;;;;13.43;8.30;;;;;;;;;;5147789;27;20496;-56
2021/03/10 14:22:25;;;;;;;17.83;11.03;;;;;;;;;;5146422;27;20525;-59
2021/03/10 14:24:53;;;;;;;18.00;10.83;;;;;;;;;;5144716;27;20454;-55
2021/03/10 14:27:22;;;;;;;14.50;10.87;;;;;;;;;;5152261;28;20461;-60
2021/03/10 14:29:50;;;;;;;16.90;12.30;;;;;;;;;;5151622;27;20469;-61
2021/03/10 14:32:19;;;;;;;15.87;12.07;;;;;;;;;;5139738;27;20457;-56
2021/03/10 14:35:00;;;;;;;17.83;12.00;;;;;;;;;;5155479;27;20449;-55
2021/03/10 14:37:28;;;;;;;14.00;10.30;;;;;;;;;;5152554;28;20445;-55
2021/03/10 14:40:28;;;;;;;12.60;9.70;;;;;;;;;;5154719;27;20481;-61
2021/03/10 14:42:56;;;;;;;19.27;11.27;;;;;;;;;;5154955;28;20479;-59
2021/03/10 14:45:23;;;;;;;15.23;10.77;;;;;;;;;;5152498;28;20522;-61
2021/03/10 14:47:51;;;;;;;15.37;11.43;;;;;;;;;;5151261;28;20449;-56
2021/03/10 14:50:18;;;;;;;18.20;11.23;;;;;;;;;;5150453;28;20567;-52
2021/03/10 14:52:52;;;;;;;15.57;11.20;;;;;;;;;;5162058;27;20454;-61
2021/03/10 14:55:47;;;;;;;13.17;10.13;;;;;;;;;;5154076;28;20426;-60
2021/03/10 14:58:37;;;;;;;16.43;10.90;;;;;;;;;;5153868;27;20459;-56
2021/03/10 15:01:05;;;;;;;13.67;10.90;;;;;;;;;;5138414;28;20485;-56
2021/03/10 15:03:34;;;;;;;18.23;9.10;;;;;;;;;;5153836;27;20656;-57
2021/03/10 15:06:02;;;;;;;14.87;10.80;;;;;;;;;;5151152;28;20461;-58